KTOB

Dodge Center Airport

Dodge Center, Minnesota, USA
METAR KTOB 200055Z AUTO 24007KT 10SM SCT110 01/M01 A2960 RMK AO2
Observed Flight Rules
Jan-20 @ 00:55 UTC (19 minutes ago) Visual Flight Rules
Wind Visibility Clouds
240° at 7 knots 10 miles
  • Scattered at 11,000' AGL
Temperatures Readings
Current 1°C / 34°F
Dewpoint -1°C / 30°F
Humidity 87%
Altimeter 29.6" Hg
Pressure 1002 hPa
Elevation 398
METAR KTOB 200055Z AUTO 24007KT 10SM SCT110 01/M01 A2960 RMK AO2
Observed Flight Rules
Jan-20 @ 00:55 UTC
(19 minutes ago)
VFR
Wind Visibility
240° at 7 knots 10 miles
Clouds
  • Scattered at 11,000' AGL
Temperature Dewpoint
1°C / 34°F -1°C / 30°F
Humidity Altimeter Pressure
87% 29.6" Hg 1002 hPa